Time;durP1;ratioP1;P1;durP2;ratioP2;P2;SDS_P1;SDS_P2;PMS_P1;PMS_P2;Temp;Humidity;BMP_temperature;BMP_pressure;BME280_temperature;BME280_humidity;BME280_pressure;Samples;Min_cycle;Max_cycle;Signal;HPM_P1;HPM_P2
2022/06/14 00:00:56;;;;;;;6.57;1.58;;;15.10;99.90;;;;;;5050624;28;20207;-71
2022/06/14 00:03:37;;;;;;;4.22;1.95;;;15.10;99.90;;;;;;5050529;28;20215;-71
2022/06/14 00:06:06;;;;;;;3.92;1.60;;;15.00;99.90;;;;;;5050574;28;20227;-71
2022/06/14 00:08:32;;;;;;;7.00;1.92;;;15.00;99.90;;;;;;5050409;28;20204;-71
2022/06/14 00:11:00;;;;;;;3.47;1.70;;;15.00;99.90;;;;;;5032699;28;20782;-71
2022/06/14 00:13:26;;;;;;;5.93;1.88;;;15.00;99.90;;;;;;5050558;28;20207;-71
2022/06/14 00:15:52;;;;;;;2.90;1.88;;;14.90;99.90;;;;;;5051014;28;20180;-71
2022/06/14 00:18:18;;;;;;;3.67;1.50;;;14.80;99.90;;;;;;5050453;28;20341;-71
2022/06/14 00:20:46;;;;;;;5.22;1.63;;;14.90;99.90;;;;;;5050337;28;20199;-71
2022/06/14 00:23:12;;;;;;;5.50;1.42;;;14.90;99.90;;;;;;5050469;28;20211;-71
2022/06/14 00:25:44;;;;;;;5.50;1.58;;;14.90;99.90;;;;;;5032639;28;20541;-71
2022/06/14 00:28:12;;;;;;;4.35;1.52;;;14.90;99.90;;;;;;5050822;28;20184;-71
2022/06/14 00:30:40;;;;;;;5.35;1.70;;;14.90;99.90;;;;;;5050310;28;20687;-71
2022/06/14 00:33:06;;;;;;;2.65;1.27;;;15.00;99.90;;;;;;5050224;28;20211;-71
2022/06/14 00:35:32;;;;;;;7.25;2.10;;;14.90;99.90;;;;;;5050372;28;20203;-71
2022/06/14 00:37:58;;;;;;;6.72;1.67;;;14.80;99.90;;;;;;5032521;28;20294;-71
2022/06/14 00:40:26;;;;;;;4.20;1.60;;;14.70;99.90;;;;;;5050390;28;20179;-71
2022/06/14 00:42:52;;;;;;;3.65;1.90;;;14.80;99.90;;;;;;5050921;28;20688;-72
2022/06/14 00:45:18;;;;;;;6.10;1.60;;;14.70;99.90;;;;;;5032235;28;20212;-72
2022/06/14 00:48:17;;;;;;;3.33;1.38;;;14.70;99.90;;;;;;5032148;28;20278;-71
2022/06/14 00:51:13;;;;;;;6.30;1.50;;;14.70;99.90;;;;;;5015871;28;20207;-71
2022/06/14 00:53:54;;;;;;;5.20;1.63;;;14.60;99.90;;;;;;5050105;28;20302;-71
2022/06/14 00:56:28;;;;;;;4.50;1.52;;;14.60;99.90;;;;;;5050415;28;20200;-71
2022/06/14 00:59:11;;;;;;;3.53;1.50;;;14.50;99.90;;;;;;5050746;28;20226;-71
2022/06/14 01:01:40;;;;;;;6.40;1.73;;;14.50;99.90;;;;;;5051024;28;20319;-72
2022/06/14 01:04:16;;;;;;;4.80;2.08;;;14.40;99.90;;;;;;5050647;28;20207;-71
2022/06/14 01:06:56;;;;;;;4.57;1.60;;;14.30;99.90;;;;;;5032606;28;20228;-71
2022/06/14 01:09:31;;;;;;;5.85;1.65;;;14.30;99.90;;;;;;5049846;28;20257;-71
2022/06/14 01:12:09;;;;;;;4.22;1.40;;;14.30;99.90;;;;;;5050302;28;20196;-71
2022/06/14 01:14:42;;;;;;;6.47;1.98;;;14.30;99.90;;;;;;5049773;28;20249;-71
2022/06/14 01:17:10;;;;;;;4.63;1.70;;;14.20;99.90;;;;;;5034584;28;20211;-71
2022/06/14 01:19:35;;;;;;;6.03;2.35;;;14.30;99.90;;;;;;5053508;28;20179;-71
2022/06/14 01:22:07;;;;;;;4.40;1.70;;;14.10;99.90;;;;;;5054662;28;20178;-71
2022/06/14 01:24:34;;;;;;;4.15;1.75;;;14.10;99.90;;;;;;5035841;28;20290;-71
2022/06/14 01:27:04;;;;;;;5.38;1.88;;;14.00;99.90;;;;;;5053969;28;20214;-71
2022/06/14 01:29:31;;;;;;;2.95;2.03;;;14.10;99.90;;;;;;5052984;28;20212;-71
2022/06/14 01:32:00;;;;;;;3.97;2.10;;;14.10;99.90;;;;;;5053666;28;20214;-71
2022/06/14 01:34:30;;;;;;;6.22;1.58;;;14.00;99.90;;;;;;5064352;28;20230;-71
2022/06/14 01:36:57;;;;;;;6.13;2.20;;;13.90;99.90;;;;;;5049111;28;20180;-72
2022/06/14 01:39:22;;;;;;;5.75;1.55;;;13.80;99.90;;;;;;5055464;28;20218;-71
2022/06/14 01:42:15;;;;;;;4.95;1.70;;;13.90;99.90;;;;;;5053346;28;20203;-71
2022/06/14 01:45:03;;;;;;;1.88;1.13;;;13.90;99.90;;;;;;5052909;28;20835;-72
2022/06/14 01:47:45;;;;;;;4.50;1.47;;;13.90;99.90;;;;;;5034660;28;20196;-72
2022/06/14 01:53:38;;;;;;;3.47;1.40;;;13.80;99.90;;;;;;5053062;28;20234;-72
2022/06/14 01:56:09;;;;;;;6.23;2.20;;;13.70;99.90;;;;;;5053146;28;20551;-72
2022/06/14 01:59:07;;;;;;;5.73;1.90;;;13.70;99.90;;;;;;5052465;28;20175;-72
2022/06/14 02:01:41;;;;;;;3.10;1.87;;;13.80;99.90;;;;;;5052918;28;20194;-72
2022/06/14 02:04:38;;;;;;;4.03;2.00;;;13.70;99.90;;;;;;5053541;28;20599;-72
2022/06/14 02:07:28;;;;;;;5.68;1.90;;;13.80;99.90;;;;;;5053101;28;20562;-71
2022/06/14 02:10:39;;;;;;;6.03;1.85;;;13.80;99.90;;;;;;5053185;28;20204;-71
2022/06/14 02:13:18;;;;;;;7.90;3.10;;;13.80;99.90;;;;;;5053194;28;20367;-71
2022/06/14 02:16:06;;;;;;;7.97;2.80;;;13.70;99.90;;;;;;5053497;28;20290;-72
2022/06/14 02:18:35;;;;;;;7.23;3.00;;;13.70;99.90;;;;;;5052539;28;20211;-71
2022/06/14 02:21:14;;;;;;;6.90;3.03;;;13.70;99.90;;;;;;5052768;28;20210;-72
2022/06/14 02:23:59;;;;;;;6.47;2.37;;;13.60;99.90;;;;;;5052150;28;20215;-71
2022/06/14 02:26:29;;;;;;;4.97;2.30;;;13.50;99.90;;;;;;5034744;28;20207;-71
2022/06/14 02:29:02;;;;;;;4.37;2.23;;;13.60;99.90;;;;;;5034122;28;20212;-73
2022/06/14 02:31:39;;;;;;;7.43;2.40;;;13.50;99.90;;;;;;5052229;28;20171;-72
2022/06/14 02:34:33;;;;;;;6.07;2.10;;;13.60;99.90;;;;;;5052808;28;20194;-74
2022/06/14 02:37:09;;;;;;;8.07;2.83;;;13.60;99.90;;;;;;5050260;28;20656;-72
2022/06/14 02:39:52;;;;;;;6.50;2.93;;;13.50;99.90;;;;;;5051835;28;20706;-72
2022/06/14 02:42:30;;;;;;;6.47;2.80;;;13.50;99.90;;;;;;5052215;28;20203;-72
2022/06/14 02:45:15;;;;;;;5.93;2.40;;;13.60;99.90;;;;;;5052127;28;20207;-72
2022/06/14 02:47:55;;;;;;;5.87;2.73;;;13.50;99.90;;;;;;5051542;28;20227;-72
2022/06/14 02:50:45;;;;;;;6.10;2.40;;;13.40;99.90;;;;;;5051843;28;20255;-76
2022/06/14 02:53:22;;;;;;;6.83;2.50;;;13.50;99.90;;;;;;5051909;28;20199;-72
2022/06/14 02:56:02;;;;;;;9.30;2.87;;;13.60;99.90;;;;;;5052188;28;20196;-72
2022/06/14 02:58:35;;;;;;;6.65;2.50;;;13.50;99.90;;;;;;5046386;28;20176;-73
2022/06/14 03:01:25;;;;;;;8.07;2.63;;;13.60;99.90;;;;;;5034577;28;20180;-72
2022/06/14 03:04:07;;;;;;;5.65;2.75;;;13.50;99.90;;;;;;5044697;28;20819;-73
2022/06/14 03:06:58;;;;;;;7.30;2.43;;;13.50;99.90;;;;;;5033512;28;20215;-72
2022/06/14 03:09:27;;;;;;;9.87;3.20;;;13.60;99.90;;;;;;5033210;28;20241;-72
2022/06/14 03:12:17;;;;;;;6.60;2.73;;;13.70;99.90;;;;;;5051522;28;20200;-72
2022/06/14 03:15:04;;;;;;;5.40;2.33;;;13.80;99.90;;;;;;5050285;28;20203;-72
2022/06/14 03:18:02;;;;;;;9.00;3.28;;;14.00;99.90;;;;;;5051109;28;20230;-72
2022/06/14 03:21:03;;;;;;;4.88;2.50;;;14.10;99.90;;;;;;5006951;28;20577;-72
2022/06/14 03:23:49;;;;;;;7.55;2.42;;;14.30;99.90;;;;;;5022410;28;20215;-72
2022/06/14 03:26:45;;;;;;;7.28;2.20;;;15.90;99.90;;;;;;5033803;28;20759;-72
2022/06/14 03:29:17;;;;;;;10.07;2.17;;;16.20;99.90;;;;;;5015649;28;20207;-72
2022/06/14 03:31:50;;;;;;;4.68;2.10;;;16.80;99.90;;;;;;5051224;28;20563;-72
2022/06/14 03:34:29;;;;;;;6.10;2.60;;;16.60;99.90;;;;;;5033805;28;20689;-72
2022/06/14 03:36:56;;;;;;;3.47;1.98;;;16.20;99.90;;;;;;5044893;28;20683;-72
2022/06/14 03:39:25;;;;;;;7.05;2.13;;;15.90;99.90;;;;;;5032286;28;20204;-72
2022/06/14 03:41:53;;;;;;;6.88;2.38;;;15.50;99.90;;;;;;5033157;28;20617;-72
2022/06/14 03:44:22;;;;;;;7.15;2.25;;;15.40;99.90;;;;;;5051014;28;20245;-72
2022/06/14 03:47:09;;;;;;;5.55;2.33;;;15.10;99.90;;;;;;5033109;28;20222;-72
2022/06/14 03:49:38;;;;;;;7.80;2.15;;;15.10;99.90;;;;;;5050735;28;20183;-72
2022/06/14 03:52:17;;;;;;;6.55;2.10;;;14.80;99.90;;;;;;5051569;28;20193;-72
2022/06/14 03:55:01;;;;;;;7.97;2.13;;;14.70;99.90;;;;;;5050600;28;20214;-71
2022/06/14 03:58:01;;;;;;;2.60;1.40;;;15.40;99.90;;;;;;5049966;28;20257;-72
2022/06/14 04:00:51;;;;;;;5.13;1.48;;;16.00;99.90;;;;;;5032898;28;20203;-72
2022/06/14 04:03:17;;;;;;;8.23;2.72;;;16.70;99.90;;;;;;5050682;28;20655;-71
2022/06/14 04:06:06;;;;;;;6.68;2.10;;;17.70;99.90;;;;;;5032700;28;20199;-71
2022/06/14 04:08:56;;;;;;;4.47;1.83;;;18.30;99.90;;;;;;5050380;28;20249;-71
2022/06/14 04:11:47;;;;;;;8.75;2.47;;;18.50;99.90;;;;;;5050327;28;20196;-71
2022/06/14 04:14:47;;;;;;;6.45;2.00;;;18.60;99.90;;;;;;5050797;28;20257;-71
2022/06/14 04:17:15;;;;;;;4.75;1.77;;;18.70;99.90;;;;;;5028385;28;20255;-72
2022/06/14 04:19:47;;;;;;;4.18;1.70;;;18.30;99.90;;;;;;5050278;28;20251;-72
2022/06/14 04:22:57;;;;;;;7.28;1.88;;;17.60;99.90;;;;;;5051205;28;20222;-72
2022/06/14 04:25:47;;;;;;;6.18;1.65;;;17.20;99.90;;;;;;5028936;28;20211;-72
2022/06/14 04:28:16;;;;;;;8.13;2.78;;;17.20;99.90;;;;;;5032133;28;20262;-72
2022/06/14 04:31:10;;;;;;;9.93;2.28;;;17.90;99.90;;;;;;5050209;28;20249;-72
2022/06/14 04:34:07;;;;;;;5.30;1.95;;;18.90;99.90;;;;;;5032291;28;20306;-72
2022/06/14 04:36:58;;;;;;;4.15;1.98;;;19.40;99.90;;;;;;5036155;28;20253;-72
2022/06/14 04:39:33;;;;;;;7.85;1.88;;;20.10;99.90;;;;;;5050253;28;20227;-72
2022/06/14 04:42:20;;;;;;;5.75;1.83;;;20.50;99.90;;;;;;5050524;28;20215;-72
2022/06/14 04:44:51;;;;;;;9.27;2.17;;;20.50;99.90;;;;;;5042144;28;20219;-72
2022/06/14 04:47:33;;;;;;;4.05;1.73;;;21.00;99.90;;;;;;5050198;28;20252;-72
2022/06/14 04:50:06;;;;;;;5.13;1.60;;;21.50;99.90;;;;;;5043694;28;20195;-72
2022/06/14 04:52:46;;;;;;;5.35;1.85;;;21.40;99.90;;;;;;5053350;28;20207;-72
2022/06/14 04:55:22;;;;;;;7.28;1.80;;;21.10;99.90;;;;;;5066982;22;20227;-77
2022/06/14 04:58:19;;;;;;;5.75;1.80;;;20.40;99.90;;;;;;5019188;28;20192;-75
2022/06/14 05:01:09;;;;;;;7.75;1.85;;;19.80;99.90;;;;;;5033878;28;20810;-77
2022/06/14 05:03:42;;;;;;;6.28;2.75;;;19.60;99.90;;;;;;5033470;28;20657;-78
2022/06/14 05:06:26;;;;;;;9.45;2.28;;;20.30;99.90;;;;;;5034202;28;20208;-77
2022/06/14 05:08:58;;;;;;;6.80;2.10;;;20.50;99.90;;;;;;5032404;28;20258;-76
2022/06/14 05:11:37;;;;;;;3.33;1.60;;;20.50;99.90;;;;;;5034037;28;20274;-77
2022/06/14 05:14:08;;;;;;;6.00;2.08;;;19.90;99.90;;;;;;5032545;28;20207;-75
2022/06/14 05:16:47;;;;;;;5.65;1.85;;;20.40;99.90;;;;;;5034257;28;20739;-75
2022/06/14 05:19:30;;;;;;;6.90;2.50;;;21.70;99.90;;;;;;5032914;28;20168;-76
2022/06/14 05:22:09;;;;;;;5.43;2.05;;;22.40;99.90;;;;;;5034679;28;20547;-78
2022/06/14 05:24:35;;;;;;;5.65;2.25;;;22.40;99.90;;;;;;5032243;28;20347;-78
2022/06/14 05:27:18;;;;;;;5.97;2.08;;;22.70;99.90;;;;;;5034049;28;20505;-76
2022/06/14 05:29:49;;;;;;;6.30;2.58;;;23.00;99.90;;;;;;5032225;28;20211;-75
2022/06/14 05:32:40;;;;;;;3.97;1.75;;;23.40;99.90;;;;;;5032707;28;20283;-77
2022/06/14 05:35:39;;;;;;;6.93;2.20;;;23.30;99.90;;;;;;5033925;28;20258;-76
2022/06/14 05:38:20;;;;;;;8.93;3.17;;;23.40;99.90;;;;;;5028240;28;20200;-79
2022/06/14 05:40:56;;;;;;;5.07;2.13;;;23.10;99.90;;;;;;5026100;28;20204;-76
2022/06/14 05:43:48;;;;;;;8.15;1.80;;;23.10;99.90;;;;;;5034056;28;20329;-76
2022/06/14 05:46:25;;;;;;;4.10;1.80;;;23.60;99.90;;;;;;5029549;28;20750;-75
2022/06/14 05:49:00;;;;;;;4.72;1.80;;;22.80;99.90;;;;;;5031167;28;20211;-76
2022/06/14 05:51:33;;;;;;;7.47;2.08;;;22.30;99.90;;;;;;5034628;28;20203;-76
2022/06/14 05:54:03;;;;;;;6.47;2.10;;;22.40;99.90;;;;;;5032150;28;20208;-75
2022/06/14 05:56:40;;;;;;;7.88;1.98;;;22.30;99.90;;;;;;5035388;28;20204;-76
2022/06/14 05:59:20;;;;;;;7.18;2.10;;;23.00;99.90;;;;;;5033564;28;20234;-76
2022/06/14 06:01:52;;;;;;;8.63;2.42;;;22.50;99.90;;;;;;5031972;28;20250;-76
2022/06/14 06:04:46;;;;;;;5.13;1.95;;;23.00;99.90;;;;;;5032126;28;20208;-77
2022/06/14 06:07:16;;;;;;;7.65;2.35;;;23.70;99.90;;;;;;5029141;28;20196;-77
2022/06/14 06:09:49;;;;;;;13.63;3.47;;;24.70;99.90;;;;;;5030964;28;20235;-76
2022/06/14 06:12:26;;;;;;;7.20;2.45;;;25.30;99.90;;;;;;5033369;28;20334;-76
2022/06/14 06:15:00;;;;;;;8.63;2.47;;;25.90;99.90;;;;;;5032990;28;20220;-78
2022/06/14 06:17:38;;;;;;;6.43;2.33;;;26.00;99.90;;;;;;5040241;28;20215;-75
2022/06/14 06:20:34;;;;;;;6.57;2.20;;;25.50;99.90;;;;;;5038451;28;20200;-76
2022/06/14 06:23:03;;;;;;;5.60;1.92;;;25.90;99.90;;;;;;5033346;28;20216;-76
2022/06/14 06:25:35;;;;;;;4.82;1.80;;;25.20;99.90;;;;;;5036337;28;20238;-76
2022/06/14 06:28:07;;;;;;;6.03;1.73;;;24.40;99.90;;;;;;5036281;28;20246;-77
2022/06/14 06:30:42;;;;;;;4.97;1.98;;;24.00;99.90;;;;;;5032552;28;20602;-77
2022/06/14 06:33:12;;;;;;;6.18;2.17;;;22.90;99.90;;;;;;5040126;28;20609;-77
2022/06/14 06:35:47;;;;;;;7.43;2.33;;;22.50;99.90;;;;;;5033182;28;20347;-77
2022/06/14 06:38:28;;;;;;;8.50;2.00;;;22.40;99.90;;;;;;5038667;28;20207;-76
2022/06/14 06:44:00;;;;;;;8.05;1.90;;;23.10;99.90;;;;;;5028265;28;20251;-77
2022/06/14 06:46:30;;;;;;;9.20;2.08;;;22.90;99.90;;;;;;5037536;28;20642;-78
2022/06/14 06:48:59;;;;;;;9.65;1.88;;;22.90;99.90;;;;;;5032772;28;20188;-77
2022/06/14 06:51:35;;;;;;;7.65;2.20;;;22.60;99.90;;;;;;5033286;28;20219;-77
2022/06/14 06:54:28;;;;;;;8.82;2.20;;;22.10;99.90;;;;;;5031331;28;20212;-80
2022/06/14 06:56:57;;;;;;;6.60;1.92;;;21.00;99.90;;;;;;5023385;28;20249;-77
2022/06/14 06:59:37;;;;;;;5.28;2.30;;;20.90;99.90;;;;;;5031541;28;20212;-78
2022/06/14 07:02:17;;;;;;;6.53;2.45;;;20.70;99.90;;;;;;5031906;28;20291;-79
2022/06/14 07:07:42;;;;;;;8.00;2.55;;;20.10;99.90;;;;;;5032319;28;20226;-78
2022/06/14 07:10:21;;;;;;;8.63;2.47;;;20.20;99.90;;;;;;5032761;28;20176;-75
2022/06/14 07:12:54;;;;;;;6.60;1.98;;;19.80;99.90;;;;;;5027846;28;20230;-75
2022/06/14 07:15:26;;;;;;;10.55;2.85;;;19.50;99.90;;;;;;5036419;28;20214;-77
2022/06/14 07:18:08;;;;;;;6.63;2.47;;;19.00;99.90;;;;;;5030677;28;20212;-76
2022/06/14 07:20:33;;;;;;;6.20;1.95;;;18.80;99.90;;;;;;5038527;28;20214;-76
2022/06/14 07:23:21;;;;;;;9.52;2.38;;;19.10;99.90;;;;;;5031263;28;20208;-75
2022/06/14 07:26:24;;;;;;;10.10;2.60;;;19.10;99.90;;;;;;5032289;28;20296;-75
2022/06/14 07:28:58;;;;;;;8.07;2.40;;;19.20;99.90;;;;;;5030128;28;20196;-75
2022/06/14 07:31:39;;;;;;;8.35;1.95;;;19.60;99.90;;;;;;5031539;28;20264;-75
2022/06/14 07:34:06;;;;;;;8.23;2.20;;;19.40;99.90;;;;;;5029963;28;20204;-75
2022/06/14 07:36:59;;;;;;;7.13;2.03;;;19.00;99.90;;;;;;5031151;28;20278;-74
2022/06/14 07:39:50;;;;;;;6.28;1.90;;;19.20;99.90;;;;;;5033754;28;20207;-74
2022/06/14 07:42:45;;;;;;;5.32;1.88;;;19.50;99.90;;;;;;5023169;28;20200;-75
2022/06/14 07:45:28;;;;;;;7.63;1.90;;;19.10;99.90;;;;;;5047339;28;20262;-76
2022/06/14 07:48:16;;;;;;;6.47;1.92;;;18.80;99.90;;;;;;5028336;28;20204;-75
2022/06/14 07:51:04;;;;;;;5.57;1.67;;;19.10;99.90;;;;;;5029103;28;20196;-76
2022/06/14 07:53:34;;;;;;;8.52;2.15;;;19.10;99.90;;;;;;5028972;28;20230;-78
2022/06/14 07:56:09;;;;;;;6.72;2.10;;;19.50;99.90;;;;;;5041247;28;20254;-75
2022/06/14 07:58:42;;;;;;;6.65;2.03;;;19.60;99.90;;;;;;5030691;28;20187;-75
2022/06/14 08:01:17;;;;;;;5.85;1.80;;;19.90;99.90;;;;;;5032681;28;20591;-75
2022/06/14 08:03:54;;;;;;;8.40;2.00;;;19.90;99.90;;;;;;5030713;28;20637;-76
2022/06/14 08:06:29;;;;;;;6.45;1.73;;;20.00;99.90;;;;;;5031792;28;20203;-76
2022/06/14 08:09:01;;;;;;;7.18;2.05;;;20.00;99.90;;;;;;5032093;28;20287;-76
2022/06/14 08:11:49;;;;;;;5.43;2.10;;;19.50;99.90;;;;;;5030936;28;20653;-76
2022/06/14 08:14:45;;;;;;;8.45;2.35;;;20.10;99.90;;;;;;5032248;28;20235;-75
2022/06/14 08:17:20;;;;;;;5.00;1.83;;;20.20;99.90;;;;;;5030512;28;20282;-74
2022/06/14 08:19:54;;;;;;;7.10;1.80;;;20.00;99.90;;;;;;5019749;28;20196;-76
2022/06/14 08:22:31;;;;;;;7.10;1.92;;;20.50;99.90;;;;;;5030281;28;20531;-76
2022/06/14 08:25:03;;;;;;;4.75;1.70;;;20.60;99.90;;;;;;5032110;28;20187;-75
2022/06/14 08:27:36;;;;;;;5.35;1.92;;;20.70;99.90;;;;;;5036205;28;20253;-74
2022/06/14 08:30:10;;;;;;;5.07;1.90;;;20.80;99.90;;;;;;5042877;28;20207;-75
2022/06/14 08:32:58;;;;;;;5.18;1.30;;;20.70;99.90;;;;;;5042833;28;20200;-74
2022/06/14 08:35:44;;;;;;;5.35;1.70;;;20.90;99.90;;;;;;5041723;28;20573;-74
2022/06/14 08:38:15;;;;;;;4.13;1.58;;;20.90;99.90;;;;;;5037909;28;20204;-75
2022/06/14 08:41:07;;;;;;;4.60;1.58;;;20.90;99.90;;;;;;5053822;28;20294;-77
2022/06/14 08:43:52;;;;;;;5.85;1.63;;;21.70;99.90;;;;;;5036410;28;20219;-75
2022/06/14 08:46:41;;;;;;;4.82;1.58;;;23.60;99.90;;;;;;5037977;28;20176;-76
2022/06/14 08:49:11;;;;;;;3.78;1.13;;;25.60;99.90;;;;;;5041967;28;20207;-74
2022/06/14 08:52:06;;;;;;;4.72;1.63;;;26.70;99.80;;;;;;5037361;28;20674;-74
2022/06/14 08:54:34;;;;;;;6.18;1.50;;;26.80;96.80;;;;;;5037392;28;20226;-74
2022/06/14 08:57:03;;;;;;;5.50;1.33;;;27.80;95.20;;;;;;5037674;28;20204;-75
2022/06/14 09:00:05;;;;;;;5.00;1.85;;;28.20;93.10;;;;;;5037188;28;20283;-74
2022/06/14 09:02:51;;;;;;;5.38;1.45;;;28.40;92.00;;;;;;5038512;28;20207;-76
2022/06/14 09:05:23;;;;;;;2.75;1.50;;;27.80;90.70;;;;;;5041262;28;20212;-75
2022/06/14 09:08:25;;;;;;;5.07;1.65;;;27.60;91.00;;;;;;5029044;28;20200;-75
2022/06/14 09:11:39;;;;;;;3.83;1.30;;;26.00;91.20;;;;;;5030405;28;20227;-77
2022/06/14 09:14:17;;;;;;;6.72;2.45;;;24.20;93.20;;;;;;5024469;28;20204;-75
2022/06/14 09:16:52;;;;;;;3.90;1.13;;;23.60;95.20;;;;;;5037128;28;20204;-75
2022/06/14 09:19:27;;;;;;;6.15;2.08;;;22.90;95.90;;;;;;5046079;28;20171;-74
2022/06/14 09:22:04;;;;;;;5.53;1.70;;;22.50;96.40;;;;;;5037808;28;20204;-75
2022/06/14 09:24:51;;;;;;;3.63;1.23;;;22.20;96.60;;;;;;5045347;28;20230;-76
2022/06/14 09:28:01;;;;;;;5.88;1.73;;;21.80;97.30;;;;;;5036047;28;20751;-75
2022/06/14 09:30:48;;;;;;;4.90;1.45;;;21.10;99.90;;;;;;5005191;28;20611;-75
2022/06/14 09:33:41;;;;;;;3.53;1.30;;;20.70;99.90;;;;;;5037250;28;20212;-74
2022/06/14 09:36:32;;;;;;;3.60;1.40;;;20.70;99.90;;;;;;5031115;28;20354;-75
2022/06/14 09:39:25;;;;;;;3.80;1.67;;;20.50;99.90;;;;;;5030453;28;20361;-77
2022/06/14 09:42:05;;;;;;;5.28;1.45;;;20.70;99.90;;;;;;5026915;28;20208;-76
2022/06/14 09:44:59;;;;;;;4.43;1.42;;;20.30;99.90;;;;;;5034036;28;20223;-76
2022/06/14 09:47:54;;;;;;;4.10;1.52;;;20.40;99.90;;;;;;5034288;28;20294;-78
2022/06/14 09:50:33;;;;;;;6.07;1.77;;;20.30;99.90;;;;;;5040962;28;20204;-76
2022/06/14 09:53:08;;;;;;;4.03;1.73;;;20.00;99.90;;;;;;5025837;28;20204;-76
2022/06/14 09:55:44;;;;;;;6.50;2.40;;;20.20;99.90;;;;;;5050229;28;20238;-76
2022/06/14 09:58:51;;;;;;;5.53;2.40;;;20.30;99.90;;;;;;5040835;28;20170;-75
2022/06/14 10:01:39;;;;;;;9.50;3.13;;;20.30;99.90;;;;;;5032855;28;20211;-76
2022/06/14 10:04:35;;;;;;;5.90;2.17;;;20.30;99.90;;;;;;5032613;28;20675;-76
2022/06/14 10:07:20;;;;;;;10.23;2.78;;;20.40;99.90;;;;;;5034740;28;20203;-75
2022/06/14 10:10:07;;;;;;;6.43;2.25;;;20.60;99.90;;;;;;5040391;28;20208;-75
2022/06/14 10:12:54;;;;;;;8.02;2.63;;;20.90;99.90;;;;;;5042151;28;20566;-74
2022/06/14 10:15:41;;;;;;;10.43;2.90;;;21.20;99.90;;;;;;5031450;28;20208;-77
2022/06/14 10:18:26;;;;;;;3.35;1.60;;;21.30;99.90;;;;;;5032801;28;20207;-75
2022/06/14 10:21:17;;;;;;;9.57;2.50;;;21.40;99.90;;;;;;5034060;28;20299;-75
2022/06/14 10:24:06;;;;;;;4.82;1.98;;;21.40;99.90;;;;;;5041400;28;20236;-76
2022/06/14 10:29:53;;;;;;;5.78;2.10;;;21.90;99.90;;;;;;5033918;28;20215;-75
2022/06/14 10:32:46;;;;;;;4.45;1.60;;;22.30;99.90;;;;;;5031848;28;20200;-75
2022/06/14 10:35:25;;;;;;;5.53;1.13;;;22.20;99.90;;;;;;5015062;28;20204;-75
2022/06/14 10:38:02;;;;;;;5.45;1.92;;;22.20;99.90;;;;;;5023247;28;20224;-75
2022/06/14 10:40:39;;;;;;;6.50;2.03;;;22.40;99.90;;;;;;5030374;28;20176;-75
2022/06/14 10:43:10;;;;;;;4.65;2.00;;;22.50;99.90;;;;;;5033464;28;20262;-75
2022/06/14 10:46:12;;;;;;;4.07;1.52;;;22.60;99.90;;;;;;5032980;28;20617;-75
2022/06/14 10:48:38;;;;;;;5.15;1.40;;;22.70;99.90;;;;;;5009865;28;20259;-75
2022/06/14 10:51:06;;;;;;;2.50;1.63;;;22.30;99.90;;;;;;5046896;28;20613;-74
2022/06/14 10:53:55;;;;;;;6.93;2.90;;;22.10;99.90;;;;;;5031410;28;20205;-75
2022/06/14 10:56:33;;;;;;;7.10;2.40;;;22.00;99.90;;;;;;5038821;23;20230;-69
2022/06/14 10:59:23;;;;;;;5.80;1.50;;;22.10;99.90;;;;;;5006608;28;20264;-70
2022/06/14 11:02:04;;;;;;;4.35;1.80;;;22.00;99.90;;;;;;4984318;28;20198;-70
2022/06/14 11:04:43;;;;;;;4.63;1.65;;;21.70;99.90;;;;;;4992421;28;20193;-71
2022/06/14 11:07:17;;;;;;;9.90;4.90;;;21.70;99.90;;;;;;4991989;28;20554;-70
2022/06/14 11:09:46;;;;;;;16.00;6.40;;;21.90;99.90;;;;;;4973069;28;20201;-70
2022/06/14 11:12:27;;;;;;;16.63;9.45;;;21.90;99.90;;;;;;4972981;28;20198;-70
2022/06/14 11:15:10;;;;;;;6.60;2.33;;;22.00;99.90;;;;;;4973174;28;20202;-70
2022/06/14 11:17:41;;;;;;;4.40;1.75;;;21.40;99.90;;;;;;4972707;28;20713;-70
2022/06/14 11:20:16;;;;;;;3.83;1.48;;;21.10;99.90;;;;;;4972599;28;20731;-70
2022/06/14 11:23:07;;;;;;;4.63;1.60;;;21.10;99.90;;;;;;4972644;28;20281;-70
2022/06/14 11:26:02;;;;;;;5.80;2.20;;;21.40;99.90;;;;;;4944268;28;20269;-69
2022/06/14 11:28:43;;;;;;;5.70;1.92;;;21.60;99.90;;;;;;4970403;28;20190;-72
2022/06/14 11:31:32;;;;;;;7.15;2.28;;;21.70;99.90;;;;;;4984943;28;20577;-72
2022/06/14 11:34:31;;;;;;;7.28;2.15;;;21.70;99.90;;;;;;4985278;28;20237;-71
2022/06/14 11:37:21;;;;;;;3.80;1.77;;;21.40;99.90;;;;;;4985267;28;20217;-70
2022/06/14 11:39:58;;;;;;;5.60;1.83;;;21.80;99.90;;;;;;4991427;28;20233;-72
2022/06/14 11:42:26;;;;;;;7.30;2.10;;;22.30;99.90;;;;;;4991355;28;20236;-76
2022/06/14 11:45:13;;;;;;;4.38;1.73;;;22.20;99.90;;;;;;4990582;28;20313;-76
2022/06/14 11:47:46;;;;;;;3.25;1.63;;;21.70;99.90;;;;;;4984409;28;20761;-76
2022/06/14 11:50:33;;;;;;;4.82;1.10;;;21.40;99.90;;;;;;4991249;28;20631;-76
2022/06/14 11:53:10;;;;;;;3.05;1.50;;;21.50;99.90;;;;;;4987308;28;20260;-75
2022/06/14 11:55:47;;;;;;;3.28;1.45;;;21.70;99.90;;;;;;4990830;28;20268;-76
2022/06/14 11:58:30;;;;;;;5.55;1.40;;;21.60;99.90;;;;;;4990967;28;20638;-75
2022/06/14 12:01:04;;;;;;;3.78;1.42;;;21.60;99.90;;;;;;4987322;28;20210;-75
2022/06/14 12:04:03;;;;;;;4.38;1.27;;;21.90;99.90;;;;;;4990502;28;20205;-76
2022/06/14 12:06:47;;;;;;;2.53;1.27;;;21.90;99.90;;;;;;4990645;28;20232;-77
2022/06/14 12:09:40;;;;;;;2.88;1.30;;;22.10;99.90;;;;;;4989052;28;20245;-75
2022/06/14 12:12:19;;;;;;;7.50;1.50;;;22.00;99.90;;;;;;4987146;28;20624;-76
2022/06/14 12:15:03;;;;;;;3.75;1.15;;;21.90;99.90;;;;;;4990026;28;20208;-76
2022/06/14 12:17:48;;;;;;;2.67;1.10;;;22.30;99.90;;;;;;4991207;28;20216;-76
2022/06/14 12:20:20;;;;;;;2.95;1.48;;;22.40;99.90;;;;;;4990894;28;20305;-76
2022/06/14 12:22:57;;;;;;;4.95;1.70;;;22.30;99.90;;;;;;4982728;28;20208;-77
2022/06/14 12:28:30;;;;;;;4.53;1.63;;;22.00;99.90;;;;;;4989137;28;20266;-76
2022/06/14 12:31:13;;;;;;;5.05;1.70;;;22.00;99.90;;;;;;5006394;28;20184;-77
2022/06/14 12:33:50;;;;;;;4.25;1.35;;;22.20;99.90;;;;;;5007244;28;20216;-78
2022/06/14 12:36:47;;;;;;;3.85;1.00;;;22.20;99.90;;;;;;4992323;28;20241;-81
2022/06/14 12:39:22;;;;;;;3.10;1.50;;;22.40;99.90;;;;;;4988665;28;20206;-80
2022/06/14 12:42:16;;;;;;;6.47;2.22;;;22.00;99.90;;;;;;4988511;28;20625;-81
2022/06/14 12:45:03;;;;;;;5.68;1.33;;;22.20;99.90;;;;;;4995508;28;20234;-79
2022/06/14 12:47:53;;;;;;;5.32;2.22;;;22.50;99.90;;;;;;4988880;28;20220;-80
2022/06/14 12:50:29;;;;;;;3.55;1.30;;;22.30;99.90;;;;;;4988319;28;20624;-80
2022/06/14 12:53:02;;;;;;;5.70;1.58;;;22.40;99.90;;;;;;4989898;28;20505;-78
2022/06/14 12:55:36;;;;;;;9.55;4.63;;;22.30;99.90;;;;;;4991228;28;20185;-78
2022/06/14 12:58:31;;;;;;;4.18;1.85;;;22.00;99.90;;;;;;4991008;28;20209;-78
2022/06/14 13:01:21;;;;;;;4.50;1.38;;;21.70;99.90;;;;;;4986360;28;20341;-78
2022/06/14 13:03:50;;;;;;;4.90;1.40;;;21.90;99.90;;;;;;4989628;28;20217;-78
2022/06/14 13:06:38;;;;;;;2.67;1.30;;;21.40;99.90;;;;;;5009836;28;20270;-78
2022/06/14 13:09:16;;;;;;;4.68;1.27;;;21.40;99.90;;;;;;5001612;28;20202;-79
2022/06/14 13:12:11;;;;;;;3.45;1.50;;;21.70;99.90;;;;;;4992389;28;20696;-79
2022/06/14 13:14:58;;;;;;;6.18;1.42;;;21.60;99.90;;;;;;4997175;28;20210;-79
2022/06/14 13:17:45;;;;;;;5.38;1.65;;;21.70;99.90;;;;;;4996146;28;20220;-78
2022/06/14 13:20:22;;;;;;;6.40;1.60;;;21.60;99.90;;;;;;4995423;28;20201;-80
2022/06/14 13:23:20;;;;;;;6.22;1.98;;;21.40;99.90;;;;;;5004249;28;20596;-80
2022/06/14 13:26:18;;;;;;;5.78;2.42;;;21.20;99.90;;;;;;5015937;28;20569;-79
2022/06/14 13:29:09;;;;;;;3.35;0.95;;;21.50;99.90;;;;;;4996458;28;20201;-78
2022/06/14 13:31:44;;;;;;;3.88;1.30;;;21.60;99.90;;;;;;4996067;28;20180;-77
2022/06/14 13:34:12;;;;;;;5.30;1.42;;;21.50;99.90;;;;;;4991463;28;20173;-78
2022/06/14 13:37:14;;;;;;;3.78;1.48;;;21.50;99.90;;;;;;4985136;28;20209;-76
2022/06/14 13:40:05;;;;;;;6.63;2.30;;;21.40;99.90;;;;;;4984436;28;20228;-76
2022/06/14 13:42:36;;;;;;;10.27;1.92;;;21.50;99.90;;;;;;4988757;28;20201;-76
2022/06/14 13:45:23;;;;;;;4.03;1.65;;;21.60;99.90;;;;;;4988863;28;20209;-76
2022/06/14 13:48:16;;;;;;;3.85;2.00;;;21.70;99.90;;;;;;4992959;28;20263;-76
2022/06/14 13:50:52;;;;;;;4.80;1.77;;;21.60;99.90;;;;;;4982375;28;20284;-76
2022/06/14 13:53:35;;;;;;;4.90;1.45;;;21.70;99.90;;;;;;4993711;28;20212;-76
2022/06/14 13:56:35;;;;;;;4.35;1.40;;;21.70;99.90;;;;;;4985634;28;20206;-76
2022/06/14 13:59:19;;;;;;;6.45;1.20;;;21.90;99.90;;;;;;4987563;28;20213;-77
2022/06/14 14:02:16;;;;;;;2.90;1.23;;;21.70;99.90;;;;;;4990121;28;20206;-76
2022/06/14 14:05:06;;;;;;;21.77;14.13;;;21.50;99.90;;;;;;4988053;28;20209;-77
2022/06/14 14:07:45;;;;;;;4.63;2.83;;;21.60;99.90;;;;;;4981825;28;20269;-77
2022/06/14 14:10:10;;;;;;;3.22;1.80;;;21.90;99.90;;;;;;4994513;28;20204;-76